Terminal Aerodrome Forecast
Issued by NWS Jackson, KY

Home | Current Version | Previous Version | Text Only | Print | Product List | Glossary On
Versions: 1 2 3 4 5 6 7 8 9 10 11 12 13
753
FTUS43 KJKL 212344 AAA
TAFLOZ
TAF AMD
KLOZ 212344Z 2200/2224 31009KT 6SM -SHRA BKN008 BKN015 OVC025
     FM220100 32008KT P6SM VCSH SCT015 BKN025
     FM220300 33005KT P6SM BKN040
     FM220500 00000KT P6SM SCT090
     FM221300 35006KT P6SM SCT200
     FM221700 35008KT P6SM SCT050=

USA.gov is the U.S. government's official web portal to all federal, state and local government web resources and services.